createdAt,value
2023-10-10T00:01:12.346Z,8.60
2023-10-10T00:03:43.630Z,10.00
2023-10-10T00:06:15.135Z,8.70
2023-10-10T00:08:51.860Z,9.60
2023-10-10T00:11:21.603Z,9.20
2023-10-10T00:13:54.108Z,9.20
2023-10-10T00:16:36.433Z,9.10
2023-10-10T00:19:17.994Z,8.50
2023-10-10T00:21:53.996Z,9.30
2023-10-10T00:24:32.510Z,8.50
2023-10-10T00:27:14.684Z,8.40
2023-10-10T00:29:46.524Z,9.60
2023-10-10T00:32:18.916Z,9.40
2023-10-10T00:34:52.174Z,8.40
2023-10-10T00:37:26.877Z,8.80
2023-10-10T00:39:56.538Z,8.30
2023-10-10T00:42:38.360Z,8.80
2023-10-10T00:45:11.008Z,8.60
2023-10-10T00:47:44.938Z,8.60
2023-10-10T00:50:17.706Z,8.90
2023-10-10T00:52:54.357Z,8.70
2023-10-10T00:55:26.462Z,8.00
2023-10-10T00:57:57.916Z,7.60
2023-10-10T01:00:28.695Z,8.00
2023-10-10T01:03:08.646Z,8.30
2023-10-10T01:05:45.225Z,8.40
2023-10-10T01:08:18.548Z,8.50
2023-10-10T01:10:50.489Z,8.40
2023-10-10T01:13:20.466Z,8.10
2023-10-10T01:15:49.764Z,8.60
2023-10-10T01:18:18.975Z,8.50
2023-10-10T01:20:48.144Z,8.60
2023-10-10T01:23:19.823Z,8.40
2023-10-10T01:25:49.627Z,8.50
2023-10-10T01:28:24.826Z,9.20
2023-10-10T01:30:54.079Z,8.00
2023-10-10T01:33:37.156Z,8.00
2023-10-10T01:36:13.313Z,7.80
2023-10-10T01:38:58.020Z,8.40
2023-10-10T01:41:39.739Z,8.10
2023-10-10T01:44:35.615Z,8.80
2023-10-10T01:47:04.878Z,8.10
2023-10-10T01:49:35.885Z,8.80
2023-10-10T01:52:05.412Z,8.90
2023-10-10T01:54:41.625Z,8.90
2023-10-10T01:57:22.751Z,7.60
2023-10-10T01:59:59.397Z,8.60
2023-10-10T02:02:31.541Z,8.40
2023-10-10T02:05:01.304Z,8.00
2023-10-10T02:07:34.051Z,8.50
2023-10-10T02:10:15.580Z,8.30
2023-10-10T02:12:47.223Z,8.20
2023-10-10T02:15:33.434Z,8.40
2023-10-10T02:18:05.942Z,8.20
2023-10-10T02:20:50.869Z,8.20
2023-10-10T02:23:33.219Z,7.70
2023-10-10T02:26:10.807Z,7.70
2023-10-10T02:28:49.802Z,8.00
2023-10-10T02:31:20.496Z,7.80
2023-10-10T02:33:59.293Z,8.00
2023-10-10T02:36:32.114Z,7.20
2023-10-10T02:39:17.381Z,7.90
2023-10-10T02:41:51.747Z,7.00
2023-10-10T02:44:35.640Z,8.00
2023-10-10T02:47:07.841Z,6.90
2023-10-10T02:49:39.099Z,7.80
2023-10-10T02:52:09.432Z,7.00
2023-10-10T02:54:45.436Z,7.40
2023-10-10T02:57:26.584Z,7.10
2023-10-10T03:00:15.539Z,6.70
2023-10-10T03:02:51.832Z,6.60
2023-10-10T03:05:42.146Z,7.60
2023-10-10T03:08:20.214Z,7.70
2023-10-10T03:10:55.593Z,7.70
2023-10-10T03:13:37.068Z,7.50
2023-10-10T03:16:19.024Z,7.70
2023-10-10T03:19:12.626Z,7.00
2023-10-10T03:21:44.594Z,7.20
2023-10-10T03:24:26.356Z,7.00
2023-10-10T03:27:11.983Z,6.70
2023-10-10T03:29:51.449Z,6.70
2023-10-10T03:32:33.892Z,7.20
2023-10-10T03:35:14.622Z,6.60
2023-10-10T03:37:55.395Z,6.40
2023-10-10T03:40:47.328Z,7.30
2023-10-10T03:43:35.237Z,8.10
2023-10-10T03:46:42.559Z,7.40
2023-10-10T03:49:30.114Z,7.60
2023-10-10T03:52:19.730Z,7.10
2023-10-10T03:55:07.272Z,8.00
2023-10-10T03:57:56.773Z,9.20
2023-10-10T04:00:44.466Z,11.70
2023-10-10T04:03:32.023Z,12.00
2023-10-10T04:06:26.441Z,10.70
2023-10-10T04:09:14.087Z,8.10
2023-10-10T04:12:18.456Z,7.70
2023-10-10T04:15:06.495Z,8.00
2023-10-10T04:17:54.331Z,10.40
2023-10-10T04:20:42.456Z,10.70
2023-10-10T04:23:30.103Z,9.00
2023-10-10T04:26:21.469Z,8.80
2023-10-10T04:29:09.482Z,11.00
2023-10-10T04:31:57.175Z,16.90
2023-10-10T04:34:44.998Z,13.90
2023-10-10T04:37:34.244Z,13.10
2023-10-10T04:40:21.767Z,11.00
2023-10-10T04:43:13.860Z,10.40
2023-10-10T04:46:01.177Z,11.60
2023-10-10T04:48:48.736Z,11.50
2023-10-10T04:51:38.520Z,13.80
2023-10-10T04:54:26.677Z,12.50
2023-10-10T04:57:24.678Z,14.30
2023-10-10T05:00:12.363Z,13.70
2023-10-10T05:03:03.956Z,14.50
2023-10-10T05:05:51.662Z,11.30
2023-10-10T05:08:39.292Z,24.60
2023-10-10T05:11:26.660Z,29.00
2023-10-10T05:14:27.859Z,36.80
2023-10-10T05:17:16.719Z,38.70
2023-10-10T05:20:04.341Z,36.10
2023-10-10T05:22:51.716Z,31.90
2023-10-10T05:25:26.587Z,32.70
2023-10-10T05:28:03.423Z,32.70
2023-10-10T05:30:44.425Z,23.80
2023-10-10T05:33:14.371Z,18.50
2023-10-10T05:35:54.557Z,18.00
2023-10-10T05:38:26.583Z,13.90
2023-10-10T05:41:00.214Z,13.80
2023-10-10T05:43:35.385Z,13.40
2023-10-10T05:46:07.400Z,13.80
2023-10-10T05:48:37.105Z,11.00
2023-10-10T05:51:09.784Z,10.70
2023-10-10T05:53:41.173Z,10.00
2023-10-10T05:56:17.872Z,10.90
2023-10-10T05:58:52.264Z,8.70
2023-10-10T06:01:23.683Z,8.20
2023-10-10T06:03:52.812Z,8.20
2023-10-10T06:06:22.644Z,8.70
2023-10-10T06:09:01.648Z,8.50
2023-10-10T06:11:31.176Z,8.70
2023-10-10T06:14:01.183Z,8.20
2023-10-10T06:16:30.413Z,8.50
2023-10-10T06:19:01.903Z,7.80
2023-10-10T06:21:31.215Z,8.20
2023-10-10T06:24:00.289Z,8.50
2023-10-10T06:26:29.897Z,7.70
2023-10-10T06:28:59.014Z,8.10
2023-10-10T06:31:36.890Z,8.70
2023-10-10T06:34:21.471Z,8.30
2023-10-10T06:36:52.191Z,9.20
2023-10-10T06:39:21.238Z,9.30
2023-10-10T06:41:52.072Z,9.90
2023-10-10T06:44:34.115Z,9.50
2023-10-10T06:47:10.909Z,9.10
2023-10-10T06:49:48.188Z,9.80
2023-10-10T06:52:20.143Z,8.40
2023-10-10T06:54:55.530Z,7.70
2023-10-10T06:57:42.649Z,8.10
2023-10-10T07:00:22.821Z,8.20
2023-10-10T07:02:54.982Z,6.80
2023-10-10T07:05:28.133Z,6.50
2023-10-10T07:10:37.104Z,6.10
2023-10-10T07:13:12.333Z,6.50
2023-10-10T07:15:42.940Z,6.70
2023-10-10T07:18:18.914Z,5.70
2023-10-10T07:21:09.473Z,5.70
2023-10-10T07:23:39.483Z,5.90
2023-10-10T07:26:19.742Z,5.80
2023-10-10T07:28:49.712Z,5.20
2023-10-10T07:31:19.341Z,4.80
2023-10-10T07:33:56.275Z,4.90
2023-10-10T07:36:29.830Z,5.60
2023-10-10T07:39:20.712Z,4.50
2023-10-10T07:41:49.848Z,4.60
2023-10-10T07:44:24.268Z,4.30
2023-10-10T07:47:12.378Z,4.10
2023-10-10T07:49:52.180Z,3.80
2023-10-10T07:52:21.742Z,3.80
2023-10-10T07:54:53.868Z,3.80
2023-10-10T07:57:29.904Z,3.80
2023-10-10T07:59:59.941Z,3.90
2023-10-10T08:02:29.220Z,3.30
2023-10-10T08:05:02.304Z,3.20
2023-10-10T08:10:15.917Z,2.80
2023-10-10T08:12:45.217Z,3.10
2023-10-10T08:15:26.577Z,3.10
2023-10-10T08:17:56.787Z,2.60
2023-10-10T08:20:45.515Z,2.00
2023-10-10T08:23:14.436Z,1.80
2023-10-10T08:25:43.697Z,1.90
2023-10-10T08:28:12.769Z,2.00
2023-10-10T08:30:41.693Z,1.80
2023-10-10T08:33:10.788Z,1.30
2023-10-10T08:35:40.886Z,1.50
2023-10-10T08:38:14.571Z,1.60
2023-10-10T08:40:43.564Z,1.70
2023-10-10T08:43:13.332Z,1.70
2023-10-10T08:45:51.558Z,1.60
2023-10-10T08:48:27.540Z,1.50
2023-10-10T08:50:56.790Z,1.80
2023-10-10T08:53:26.320Z,1.30
2023-10-10T08:55:58.212Z,1.40
2023-10-10T08:58:27.135Z,1.30
2023-10-10T09:00:57.038Z,1.20
2023-10-10T09:03:27.952Z,1.10
2023-10-10T09:08:29.160Z,1.00
2023-10-10T09:11:00.020Z,1.00
2023-10-10T09:13:33.241Z,1.00
2023-10-10T09:16:10.675Z,1.20
2023-10-10T09:18:39.791Z,1.10
2023-10-10T09:21:22.264Z,1.00
2023-10-10T09:24:16.724Z,1.20
2023-10-10T09:26:54.485Z,0.90
2023-10-10T09:29:33.931Z,0.90
2023-10-10T09:32:03.764Z,0.90
2023-10-10T09:34:37.166Z,1.10
2023-10-10T09:37:08.532Z,1.20
2023-10-10T09:39:38.490Z,1.10
2023-10-10T09:42:27.824Z,0.90
2023-10-10T09:45:03.227Z,0.90
2023-10-10T09:47:45.073Z,0.90
2023-10-10T09:50:40.965Z,0.80
2023-10-10T09:53:21.006Z,0.80
2023-10-10T09:58:27.961Z,0.90
2023-10-10T10:01:14.126Z,1.00
2023-10-10T10:04:01.810Z,1.00
2023-10-10T10:07:06.136Z,0.80
2023-10-10T10:09:55.157Z,1.00
2023-10-10T10:12:42.925Z,0.90
2023-10-10T10:15:21.386Z,1.20
2023-10-10T10:17:50.472Z,1.40
2023-10-10T10:20:26.080Z,1.20
2023-10-10T10:22:55.164Z,1.40
2023-10-10T10:25:26.743Z,1.30
2023-10-10T10:28:01.539Z,1.40
2023-10-10T10:30:30.674Z,1.10
2023-10-10T10:33:00.001Z,1.30
2023-10-10T10:35:50.564Z,1.10
2023-10-10T10:38:26.451Z,1.00
2023-10-10T10:41:07.370Z,1.10
2023-10-10T10:43:42.731Z,1.00
2023-10-10T10:46:16.394Z,0.90
2023-10-10T10:48:57.805Z,1.20
2023-10-10T10:51:43.109Z,1.00
2023-10-10T10:54:30.843Z,0.80
2023-10-10T10:57:04.662Z,1.00
2023-10-10T10:59:46.589Z,0.70
2023-10-10T11:02:29.335Z,0.60
2023-10-10T11:04:58.959Z,0.90
2023-10-10T11:07:31.201Z,0.50
2023-10-10T11:10:09.461Z,0.70
2023-10-10T11:12:38.648Z,0.80
2023-10-10T11:15:12.582Z,0.50
2023-10-10T11:17:51.171Z,0.70
2023-10-10T11:20:52.514Z,0.70
2023-10-10T11:23:24.127Z,0.80
2023-10-10T11:26:01.827Z,0.70
2023-10-10T11:28:49.022Z,0.70
2023-10-10T11:31:30.669Z,1.00
2023-10-10T11:34:27.363Z,0.90
2023-10-10T11:37:16.433Z,1.10
2023-10-10T11:40:00.425Z,0.70
2023-10-10T11:42:30.486Z,0.60
2023-10-10T11:45:06.854Z,0.70
2023-10-10T11:47:44.000Z,0.50
2023-10-10T11:50:14.459Z,0.60
2023-10-10T11:53:00.785Z,0.70
2023-10-10T11:55:30.208Z,0.60
2023-10-10T11:57:59.570Z,0.80
2023-10-10T12:00:37.401Z,0.60
2023-10-10T12:03:07.103Z,0.60
2023-10-10T12:08:49.431Z,1.00
2023-10-10T12:11:22.083Z,0.80
2023-10-10T12:13:52.448Z,1.00
2023-10-10T12:16:30.526Z,1.30
2023-10-10T12:19:01.870Z,1.30
2023-10-10T12:21:36.771Z,1.10
2023-10-10T12:24:07.846Z,1.10
2023-10-10T12:26:43.499Z,1.00
2023-10-10T12:29:12.655Z,1.40
2023-10-10T12:31:41.661Z,1.10
2023-10-10T12:34:10.923Z,1.20
2023-10-10T12:36:41.739Z,1.40
2023-10-10T12:39:16.662Z,1.40
2023-10-10T12:41:48.776Z,1.40
2023-10-10T12:44:18.321Z,1.40
2023-10-10T12:46:47.511Z,1.40
2023-10-10T12:49:18.536Z,1.30
2023-10-10T12:51:47.742Z,1.60
2023-10-10T12:54:21.565Z,1.20
2023-10-10T12:56:56.256Z,1.30
2023-10-10T12:59:32.189Z,1.20
2023-10-10T13:02:05.078Z,1.30
2023-10-10T13:04:34.302Z,1.40
2023-10-10T13:07:06.571Z,1.60
2023-10-10T13:09:43.857Z,1.30
2023-10-10T13:12:19.872Z,1.30
2023-10-10T13:14:54.917Z,1.20
2023-10-10T13:17:29.639Z,1.40
2023-10-10T13:20:00.419Z,1.20
2023-10-10T13:22:31.099Z,1.30
2023-10-10T13:25:00.264Z,1.20
2023-10-10T13:27:29.349Z,1.30
2023-10-10T13:29:58.602Z,1.30
2023-10-10T13:32:29.896Z,1.20
2023-10-10T13:35:02.032Z,1.30
2023-10-10T13:37:31.367Z,1.30
2023-10-10T13:40:00.949Z,1.50
2023-10-10T13:42:30.898Z,1.10
2023-10-10T13:45:13.076Z,1.40
2023-10-10T13:47:42.548Z,1.30
2023-10-10T13:50:29.918Z,1.10
2023-10-10T13:53:00.769Z,1.30
2023-10-10T13:55:34.246Z,1.20
2023-10-10T13:58:03.253Z,1.30
2023-10-10T14:00:35.587Z,1.10
2023-10-10T14:05:39.268Z,1.20
2023-10-10T14:08:08.638Z,1.40
2023-10-10T14:10:37.989Z,1.10
2023-10-10T14:13:23.260Z,1.40
2023-10-10T14:15:59.421Z,1.30
2023-10-10T14:18:44.636Z,1.30
2023-10-10T14:21:14.654Z,1.40
2023-10-10T14:23:44.317Z,1.30
2023-10-10T14:26:20.171Z,1.50
2023-10-10T14:28:52.039Z,1.60
2023-10-10T14:31:23.072Z,1.40
2023-10-10T14:33:52.645Z,1.60
2023-10-10T14:36:22.379Z,1.50
2023-10-10T14:38:51.788Z,1.50
2023-10-10T14:41:22.261Z,1.60
2023-10-10T14:43:55.899Z,1.80
2023-10-10T14:46:25.847Z,1.40
2023-10-10T14:49:08.091Z,1.40
2023-10-10T14:51:37.862Z,1.70
2023-10-10T14:54:08.585Z,1.20
2023-10-10T14:56:39.324Z,1.70
2023-10-10T14:59:08.551Z,1.70
2023-10-10T15:01:37.621Z,1.90
2023-10-10T15:04:07.435Z,1.70
2023-10-10T15:06:36.575Z,1.70
2023-10-10T15:09:05.532Z,2.00
2023-10-10T15:11:34.599Z,2.00
2023-10-10T15:14:07.868Z,1.70
2023-10-10T15:16:37.517Z,2.10
2023-10-10T15:19:10.110Z,1.70
2023-10-10T15:21:39.616Z,2.20
2023-10-10T15:24:12.828Z,2.00
2023-10-10T15:26:42.923Z,1.90
2023-10-10T15:29:13.884Z,2.00
2023-10-10T15:31:45.485Z,1.80
2023-10-10T15:34:17.565Z,1.90
2023-10-10T15:36:47.516Z,1.90
2023-10-10T15:39:16.803Z,2.20
2023-10-10T15:41:46.277Z,1.70
2023-10-10T15:44:17.166Z,1.70
2023-10-10T15:46:46.280Z,1.90
2023-10-10T15:51:47.585Z,1.70
2023-10-10T15:54:17.459Z,1.90
2023-10-10T15:56:48.555Z,1.80
2023-10-10T15:59:17.885Z,2.00
2023-10-10T16:01:49.107Z,1.80
2023-10-10T16:04:20.698Z,1.80
2023-10-10T16:06:51.918Z,1.80
2023-10-10T16:09:34.984Z,1.70
2023-10-10T16:12:14.123Z,1.70
2023-10-10T16:14:43.673Z,2.00
2023-10-10T16:17:17.519Z,1.80
2023-10-10T16:19:47.349Z,1.90
2023-10-10T16:22:16.577Z,2.10
2023-10-10T16:24:47.868Z,1.90
2023-10-10T16:27:19.374Z,2.00
2023-10-10T16:29:48.626Z,1.90
2023-10-10T16:32:19.763Z,2.10
2023-10-10T16:34:51.451Z,2.00
2023-10-10T16:37:22.512Z,1.70
2023-10-10T16:39:53.398Z,1.80
2023-10-10T16:42:24.868Z,1.90
2023-10-10T16:44:55.026Z,2.20
2023-10-10T16:47:24.525Z,2.00
2023-10-10T16:49:53.899Z,2.10
2023-10-10T16:52:27.683Z,2.00
2023-10-10T16:54:58.373Z,2.00
2023-10-10T16:57:27.691Z,2.30
2023-10-10T16:59:58.170Z,2.00
2023-10-10T17:02:39.669Z,2.20
2023-10-10T17:05:14.663Z,2.70
2023-10-10T17:07:45.374Z,2.70
2023-10-10T17:10:17.655Z,3.20
2023-10-10T17:12:47.582Z,3.30
2023-10-10T17:15:23.224Z,2.90
2023-10-10T17:17:52.427Z,3.90
2023-10-10T17:20:21.714Z,10.10
2023-10-10T17:22:51.084Z,16.90
2023-10-10T17:25:20.102Z,15.40
2023-10-10T17:27:53.334Z,14.30
2023-10-10T17:30:23.284Z,7.80
2023-10-10T17:32:52.921Z,5.70
2023-10-10T17:35:22.373Z,5.00
2023-10-10T17:37:54.797Z,4.10
2023-10-10T17:40:24.684Z,4.50
2023-10-10T17:42:54.295Z,4.60
2023-10-10T17:45:27.395Z,4.80
2023-10-10T17:47:57.954Z,4.30
2023-10-10T17:50:27.208Z,4.20
2023-10-10T17:52:58.481Z,4.50
2023-10-10T17:55:29.035Z,4.10
2023-10-10T17:57:58.003Z,4.10
2023-10-10T18:00:35.105Z,3.40
2023-10-10T18:03:11.277Z,3.90
2023-10-10T18:05:41.901Z,4.20
2023-10-10T18:08:12.558Z,3.60
2023-10-10T18:10:41.546Z,3.80
2023-10-10T18:13:13.816Z,4.60
2023-10-10T18:15:43.327Z,3.60
2023-10-10T18:18:14.409Z,3.10
2023-10-10T18:20:44.324Z,3.60
2023-10-10T18:23:17.526Z,3.70
2023-10-10T18:25:48.677Z,3.30
2023-10-10T18:28:19.015Z,3.30
2023-10-10T18:30:48.097Z,2.90
2023-10-10T18:33:19.516Z,3.10
2023-10-10T18:35:51.234Z,3.40
2023-10-10T18:38:22.436Z,3.40
2023-10-10T18:40:54.029Z,3.00
2023-10-10T18:43:24.685Z,2.80
2023-10-10T18:45:58.009Z,2.90
2023-10-10T18:50:57.307Z,3.20
2023-10-10T18:53:27.425Z,3.30
2023-10-10T18:55:56.999Z,3.30
2023-10-10T18:58:33.661Z,3.70
2023-10-10T19:01:02.425Z,3.20
2023-10-10T19:03:31.801Z,3.10
2023-10-10T19:06:01.312Z,3.10
2023-10-10T19:08:31.029Z,3.60
2023-10-10T19:11:02.221Z,3.10
2023-10-10T19:13:32.315Z,3.30
2023-10-10T19:16:02.939Z,3.60
2023-10-10T19:18:36.147Z,3.40
2023-10-10T19:21:12.567Z,3.40
2023-10-10T19:23:42.269Z,3.20
2023-10-10T19:26:13.835Z,3.60
2023-10-10T19:28:48.664Z,3.50
2023-10-10T19:31:19.595Z,3.50
2023-10-10T19:33:49.190Z,3.60
2023-10-10T19:36:21.754Z,3.70
2023-10-10T19:38:51.648Z,4.10
2023-10-10T19:41:25.873Z,3.80
2023-10-10T19:43:54.974Z,3.30
2023-10-10T19:48:52.406Z,3.50
2023-10-10T19:51:22.980Z,3.90
2023-10-10T19:53:54.279Z,4.30
2023-10-10T19:56:24.101Z,3.40
2023-10-10T19:58:54.804Z,3.90
2023-10-10T20:01:26.653Z,4.00
2023-10-10T20:03:57.107Z,3.90
2023-10-10T20:06:26.570Z,4.10
2023-10-10T20:08:55.601Z,4.00
2023-10-10T20:11:28.907Z,3.80
2023-10-10T20:14:06.084Z,3.90
2023-10-10T20:16:39.804Z,4.10
2023-10-10T20:19:09.819Z,4.20
2023-10-10T20:21:39.267Z,4.30
2023-10-10T20:24:09.632Z,3.90
2023-10-10T20:26:38.681Z,3.60
2023-10-10T20:29:10.924Z,4.10
2023-10-10T20:31:39.857Z,4.60
2023-10-10T20:34:08.814Z,3.50
2023-10-10T20:36:40.750Z,3.80
2023-10-10T20:39:19.475Z,4.80
2023-10-10T20:41:49.674Z,3.80
2023-10-10T20:44:19.017Z,4.50
2023-10-10T20:46:49.472Z,5.00
2023-10-10T20:49:18.660Z,4.30
2023-10-10T20:51:49.739Z,4.60
2023-10-10T20:54:18.777Z,4.50
2023-10-10T20:56:50.088Z,4.40
2023-10-10T20:59:20.071Z,4.40
2023-10-10T21:01:49.013Z,4.40
2023-10-10T21:04:18.371Z,4.20
2023-10-10T21:06:48.056Z,5.00
2023-10-10T21:09:17.337Z,4.10
2023-10-10T21:11:46.808Z,4.10
2023-10-10T21:14:15.879Z,3.50
2023-10-10T21:16:46.178Z,3.70
2023-10-10T21:19:15.391Z,4.00
2023-10-10T21:21:45.112Z,4.10
2023-10-10T21:24:14.009Z,3.70
2023-10-10T21:26:43.223Z,3.80
2023-10-10T21:29:12.072Z,3.80
2023-10-10T21:31:46.012Z,3.90
2023-10-10T21:34:15.068Z,4.30
2023-10-10T21:36:43.994Z,4.00
2023-10-10T21:39:13.009Z,4.30
2023-10-10T21:41:41.936Z,4.20
2023-10-10T21:44:12.237Z,4.70
2023-10-10T21:46:42.339Z,4.40
2023-10-10T21:49:15.590Z,3.80
2023-10-10T21:51:45.427Z,4.50
2023-10-10T21:54:14.546Z,3.70
2023-10-10T21:56:43.760Z,4.30
2023-10-10T21:59:12.860Z,4.20
2023-10-10T22:01:43.708Z,4.10
2023-10-10T22:04:12.785Z,4.40
2023-10-10T22:15:10.194Z,4.30
2023-10-10T22:17:42.686Z,4.70
2023-10-10T22:20:12.429Z,4.50
2023-10-10T22:22:41.615Z,3.90
2023-10-10T22:25:20.357Z,4.30
2023-10-10T22:27:50.107Z,4.00
2023-10-10T22:30:25.843Z,4.40
2023-10-10T22:32:56.033Z,4.50
2023-10-10T22:35:27.387Z,4.30
2023-10-10T22:38:03.379Z,4.10
2023-10-10T22:40:34.816Z,4.50
2023-10-10T22:43:05.244Z,4.40
2023-10-10T22:45:35.652Z,4.90
2023-10-10T22:48:05.672Z,4.20
2023-10-10T22:50:35.553Z,4.40
2023-10-10T22:53:05.510Z,4.40
2023-10-10T22:55:35.211Z,4.10
2023-10-10T22:58:11.775Z,3.80
2023-10-10T23:00:41.063Z,4.70
2023-10-10T23:03:11.336Z,4.00
2023-10-10T23:05:43.948Z,4.30
2023-10-10T23:08:14.526Z,3.80
2023-10-10T23:10:44.800Z,4.20
2023-10-10T23:13:17.286Z,4.30
2023-10-10T23:15:50.328Z,4.20
2023-10-10T23:18:19.734Z,4.00
2023-10-10T23:20:53.222Z,4.00
2023-10-10T23:23:22.370Z,4.50
2023-10-10T23:25:52.397Z,3.60
2023-10-10T23:28:21.257Z,4.20
2023-10-10T23:30:50.318Z,4.10
2023-10-10T23:33:19.424Z,4.50
2023-10-10T23:35:50.047Z,4.10
2023-10-10T23:38:21.038Z,4.40
2023-10-10T23:40:50.335Z,4.10
2023-10-10T23:43:23.201Z,4.40
2023-10-10T23:48:32.090Z,3.70
2023-10-10T23:51:07.985Z,4.10
2023-10-10T23:53:40.209Z,4.00
2023-10-10T23:56:10.787Z,4.40
2023-10-10T23:58:39.732Z,3.70
